createdAt,value
2023-03-16T00:00:09.727Z,3.83
2023-03-16T00:02:36.385Z,3.84
2023-03-16T00:05:03.066Z,3.80
2023-03-16T00:07:29.727Z,3.78
2023-03-16T00:09:56.496Z,3.80
2023-03-16T00:12:23.203Z,3.81
2023-03-16T00:14:49.913Z,3.74
2023-03-16T00:17:21.008Z,3.70
2023-03-16T00:19:55.219Z,3.62
2023-03-16T00:22:23.305Z,3.57
2023-03-16T00:24:49.902Z,3.56
2023-03-16T00:27:17.350Z,3.57
2023-03-16T00:29:48.242Z,3.55
2023-03-16T00:32:19.099Z,3.55
2023-03-16T00:34:46.049Z,3.57
2023-03-16T00:37:15.380Z,3.48
2023-03-16T00:39:42.904Z,3.56
2023-03-16T00:42:10.305Z,3.56
2023-03-16T00:44:37.375Z,3.59
2023-03-16T00:47:04.905Z,3.57
2023-03-16T00:49:34.862Z,3.55
2023-03-16T00:52:05.470Z,3.63
2023-03-16T00:54:34.761Z,3.66
2023-03-16T00:57:01.618Z,3.70
2023-03-16T00:59:28.709Z,3.70
2023-03-16T01:01:55.747Z,3.62
2023-03-16T01:04:22.525Z,3.66
2023-03-16T01:06:49.499Z,3.70
2023-03-16T01:09:16.149Z,3.73
2023-03-16T01:11:43.244Z,3.76
2023-03-16T01:14:10.421Z,3.81
2023-03-16T01:16:37.161Z,3.81
2023-03-16T01:19:03.934Z,3.87
2023-03-16T01:21:32.521Z,3.88
2023-03-16T01:23:59.307Z,3.94
2023-03-16T01:26:25.980Z,3.95
2023-03-16T01:28:52.608Z,3.94
2023-03-16T01:31:19.316Z,3.97
2023-03-16T01:33:46.015Z,4.01
2023-03-16T01:36:14.854Z,3.98
2023-03-16T01:38:41.509Z,3.99
2023-03-16T01:41:08.291Z,4.01
2023-03-16T01:43:35.571Z,3.95
2023-03-16T01:46:05.279Z,3.98
2023-03-16T01:48:55.702Z,3.97
2023-03-16T01:51:36.331Z,3.95
2023-03-16T01:54:07.952Z,3.91
2023-03-16T01:56:38.334Z,3.95
2023-03-16T01:59:07.647Z,3.93
2023-03-16T02:01:34.427Z,3.94
2023-03-16T02:04:29.090Z,3.73
2023-03-16T02:06:55.934Z,3.76
2023-03-16T02:09:22.756Z,3.67
2023-03-16T02:11:49.383Z,3.69
2023-03-16T02:14:16.117Z,3.67
2023-03-16T02:16:42.812Z,3.62
2023-03-16T02:19:12.867Z,3.66
2023-03-16T02:22:02.216Z,3.71
2023-03-16T02:24:28.898Z,3.77
2023-03-16T02:26:57.921Z,3.76
2023-03-16T02:29:25.822Z,3.77
2023-03-16T02:31:53.242Z,3.77
2023-03-16T02:34:19.868Z,3.83
2023-03-16T02:36:46.957Z,3.80
2023-03-16T02:39:13.622Z,3.78
2023-03-16T02:41:41.809Z,3.83
2023-03-16T02:44:15.304Z,3.90
2023-03-16T02:46:43.620Z,3.98
2023-03-16T02:49:22.509Z,4.07
2023-03-16T02:51:49.146Z,4.11
2023-03-16T02:54:16.034Z,4.07
2023-03-16T02:56:42.720Z,4.12
2023-03-16T02:59:09.377Z,4.21
2023-03-16T03:01:36.715Z,4.18
2023-03-16T03:04:04.046Z,4.18
2023-03-16T03:06:32.349Z,4.21
2023-03-16T03:08:59.575Z,4.18
2023-03-16T03:11:26.328Z,4.17
2023-03-16T03:13:54.108Z,4.17
2023-03-16T03:16:21.384Z,4.15
2023-03-16T03:18:48.415Z,4.21
2023-03-16T03:21:15.114Z,4.09
2023-03-16T03:23:41.760Z,4.15
2023-03-16T03:26:08.453Z,4.17
2023-03-16T03:28:35.335Z,4.24
2023-03-16T03:31:02.002Z,4.25
2023-03-16T03:33:28.887Z,4.31
2023-03-16T03:35:57.259Z,4.38
2023-03-16T03:38:24.723Z,4.48
2023-03-16T03:40:52.084Z,4.63
2023-03-16T03:43:19.031Z,4.77
2023-03-16T03:45:45.750Z,4.87
2023-03-16T03:48:12.456Z,4.87
2023-03-16T03:50:40.654Z,4.90
2023-03-16T03:53:07.768Z,4.93
2023-03-16T03:55:34.456Z,4.93
2023-03-16T03:58:01.073Z,4.91
2023-03-16T04:00:27.877Z,4.93
2023-03-16T04:02:54.710Z,4.90
2023-03-16T04:05:22.037Z,4.83
2023-03-16T04:07:50.770Z,4.85
2023-03-16T04:10:17.447Z,4.88
2023-03-16T04:12:44.138Z,4.85
2023-03-16T04:15:12.579Z,4.80
2023-03-16T04:17:39.260Z,4.69
2023-03-16T04:20:11.836Z,4.60
2023-03-16T04:22:38.456Z,4.53
2023-03-16T04:25:05.366Z,4.28
2023-03-16T04:27:36.490Z,4.19
2023-03-16T04:30:05.722Z,4.18
2023-03-16T04:32:35.513Z,4.09
2023-03-16T04:35:02.188Z,3.98
2023-03-16T04:37:28.906Z,3.93
2023-03-16T04:39:55.623Z,3.84
2023-03-16T04:42:22.434Z,3.78
2023-03-16T04:44:49.281Z,3.70
2023-03-16T04:47:16.764Z,3.67
2023-03-16T04:49:43.455Z,3.60
2023-03-16T04:52:10.344Z,3.59
2023-03-16T04:54:36.947Z,3.59
2023-03-16T04:57:06.742Z,3.60
2023-03-16T04:59:33.431Z,3.63
2023-03-16T05:02:00.083Z,3.60
2023-03-16T05:04:26.823Z,3.64
2023-03-16T05:06:53.509Z,3.70
2023-03-16T05:09:20.809Z,3.74
2023-03-16T05:11:47.504Z,3.81
2023-03-16T05:14:14.158Z,3.87
2023-03-16T05:16:42.065Z,3.88
2023-03-16T05:19:08.767Z,3.83
2023-03-16T05:21:37.803Z,3.77
2023-03-16T05:24:08.036Z,3.80
2023-03-16T05:26:34.835Z,3.74
2023-03-16T05:29:01.958Z,3.71
2023-03-16T05:31:32.821Z,3.70
2023-03-16T05:33:59.533Z,3.71
2023-03-16T05:36:26.196Z,3.73
2023-03-16T05:38:52.908Z,3.77
2023-03-16T05:41:21.481Z,3.81
2023-03-16T05:43:48.197Z,3.87
2023-03-16T05:46:14.913Z,3.94
2023-03-16T05:48:41.603Z,3.97
2023-03-16T05:51:08.325Z,4.09
2023-03-16T05:53:36.212Z,4.29
2023-03-16T05:56:03.111Z,4.50
2023-03-16T05:58:29.798Z,4.69
2023-03-16T06:00:56.500Z,4.91
2023-03-16T06:03:23.176Z,5.07
2023-03-16T06:05:49.869Z,5.22
2023-03-16T06:08:16.535Z,5.32
2023-03-16T06:10:43.240Z,5.43
2023-03-16T06:13:09.839Z,5.58
2023-03-16T06:15:36.595Z,5.65
2023-03-16T06:18:03.296Z,5.69
2023-03-16T06:20:30.285Z,5.70
2023-03-16T06:22:57.148Z,5.72
2023-03-16T06:25:24.190Z,5.76
2023-03-16T06:27:50.977Z,5.80
2023-03-16T06:30:17.947Z,5.83
2023-03-16T06:32:45.778Z,5.90
2023-03-16T06:35:12.647Z,5.97
2023-03-16T06:37:39.334Z,5.91
2023-03-16T06:40:06.832Z,5.91
2023-03-16T06:42:33.774Z,5.91
2023-03-16T06:45:01.029Z,5.96
2023-03-16T06:47:27.728Z,6.06
2023-03-16T06:49:55.428Z,6.07
2023-03-16T06:52:22.400Z,6.17
2023-03-16T06:54:49.058Z,6.24
2023-03-16T06:57:15.710Z,6.29
2023-03-16T06:59:42.381Z,6.35
2023-03-16T07:02:12.080Z,6.42
2023-03-16T07:04:38.860Z,6.49
2023-03-16T07:07:05.496Z,6.61
2023-03-16T07:09:32.173Z,6.61
2023-03-16T07:11:58.915Z,6.56
2023-03-16T07:14:26.327Z,6.52
2023-03-16T07:16:53.176Z,6.50
2023-03-16T07:19:20.079Z,6.44
2023-03-16T07:21:46.783Z,6.41
2023-03-16T07:24:13.352Z,6.39
2023-03-16T07:26:40.097Z,6.44
2023-03-16T07:29:06.817Z,6.48
2023-03-16T07:31:36.513Z,6.53
2023-03-16T07:34:03.997Z,6.62
2023-03-16T07:36:30.700Z,6.72
2023-03-16T07:38:57.375Z,6.83
2023-03-16T07:41:25.407Z,6.87
2023-03-16T07:43:52.127Z,6.95
2023-03-16T07:46:18.844Z,6.99
2023-03-16T07:48:45.576Z,6.93
2023-03-16T07:51:12.548Z,6.92
2023-03-16T07:53:39.628Z,6.89
2023-03-16T07:56:06.576Z,6.82
2023-03-16T07:58:33.731Z,6.85
2023-03-16T08:01:01.577Z,6.90
2023-03-16T08:03:29.126Z,7.01
2023-03-16T08:05:55.787Z,7.11
2023-03-16T08:08:22.637Z,7.25
2023-03-16T08:10:52.747Z,7.45
2023-03-16T08:13:20.156Z,7.94
2023-03-16T08:15:48.166Z,8.62
2023-03-16T08:18:14.909Z,8.95
2023-03-16T08:20:42.271Z,9.88
2023-03-16T08:23:08.985Z,10.91
2023-03-16T08:25:35.749Z,11.91
2023-03-16T08:28:02.465Z,12.70
2023-03-16T08:30:30.766Z,12.52
2023-03-16T08:32:57.787Z,12.22
2023-03-16T08:35:24.677Z,12.04
2023-03-16T08:37:51.352Z,12.20
2023-03-16T08:40:18.415Z,12.22
2023-03-16T08:42:45.272Z,11.87
2023-03-16T08:45:14.293Z,11.53
2023-03-16T08:47:41.341Z,11.70
2023-03-16T08:50:08.798Z,11.77
2023-03-16T08:52:36.601Z,11.78
2023-03-16T08:55:05.597Z,11.87
2023-03-16T08:57:33.436Z,11.80
2023-03-16T09:00:00.230Z,11.52
2023-03-16T09:02:26.914Z,11.18
2023-03-16T09:04:53.627Z,11.01
2023-03-16T09:07:20.617Z,10.92
2023-03-16T09:09:47.299Z,10.72
2023-03-16T09:12:13.941Z,10.67
2023-03-16T09:14:40.738Z,10.54
2023-03-16T09:17:11.832Z,10.61
2023-03-16T09:19:58.802Z,10.68
2023-03-16T09:22:25.835Z,10.61
2023-03-16T09:24:52.602Z,10.52
2023-03-16T09:27:20.649Z,10.61
2023-03-16T09:29:47.532Z,10.67
2023-03-16T09:32:14.652Z,10.71
2023-03-16T09:34:41.591Z,10.77
2023-03-16T09:37:08.264Z,10.74
2023-03-16T09:39:34.894Z,10.85
2023-03-16T09:42:27.243Z,11.04
2023-03-16T09:44:59.822Z,11.14
2023-03-16T09:47:28.875Z,11.11
2023-03-16T09:50:00.097Z,11.12
2023-03-16T09:52:48.455Z,11.07
2023-03-16T09:55:31.298Z,11.22
2023-03-16T09:57:58.887Z,11.55
2023-03-16T10:00:27.588Z,11.57
2023-03-16T10:03:00.386Z,11.50
2023-03-16T10:05:27.339Z,11.44
2023-03-16T10:08:09.295Z,11.33
2023-03-16T10:10:47.005Z,11.05
2023-03-16T10:13:36.410Z,10.97
2023-03-16T10:16:07.799Z,10.95
2023-03-16T10:18:38.895Z,11.07
2023-03-16T10:21:05.596Z,11.23
2023-03-16T10:23:32.704Z,11.32
2023-03-16T10:25:59.451Z,11.39
2023-03-16T10:28:27.250Z,11.30
2023-03-16T10:30:55.518Z,11.16
2023-03-16T10:33:26.785Z,11.08
2023-03-16T10:36:05.650Z,11.01
2023-03-16T10:38:49.346Z,10.91
2023-03-16T10:41:21.390Z,10.70
2023-03-16T10:43:51.576Z,10.60
2023-03-16T10:46:18.885Z,10.49
2023-03-16T10:49:01.871Z,10.40
2023-03-16T10:51:29.905Z,10.34
2023-03-16T10:54:21.917Z,10.17
2023-03-16T10:56:50.628Z,9.91
2023-03-16T10:59:26.485Z,9.78
2023-03-16T11:01:53.175Z,9.65
2023-03-16T11:04:20.489Z,9.47
2023-03-16T11:06:56.720Z,9.30
2023-03-16T11:09:33.680Z,9.22
2023-03-16T11:12:01.456Z,9.12
2023-03-16T11:14:28.646Z,9.05
2023-03-16T11:17:06.119Z,8.96
2023-03-16T11:19:33.695Z,8.95
2023-03-16T11:22:20.020Z,8.96
2023-03-16T11:24:54.185Z,8.95
2023-03-16T11:27:24.877Z,8.92
2023-03-16T11:30:04.924Z,8.95
2023-03-16T11:32:41.600Z,8.98
2023-03-16T11:35:19.670Z,8.99
2023-03-16T11:38:07.693Z,8.98
2023-03-16T11:41:02.149Z,8.99
2023-03-16T11:43:55.783Z,9.02
2023-03-16T11:46:31.628Z,8.93
2023-03-16T11:49:01.906Z,8.93
2023-03-16T11:52:03.652Z,8.86
2023-03-16T11:54:55.009Z,8.93
2023-03-16T11:57:32.780Z,8.96
2023-03-16T12:00:13.538Z,8.98
2023-03-16T12:03:02.125Z,9.02
2023-03-16T12:05:39.910Z,8.96
2023-03-16T12:08:16.968Z,8.98
2023-03-16T12:11:21.069Z,8.90
2023-03-16T12:13:53.514Z,8.95
2023-03-16T12:16:49.234Z,8.99
2023-03-16T12:19:30.816Z,8.93
2023-03-16T12:22:31.018Z,8.90
2023-03-16T12:24:57.708Z,8.86
2023-03-16T12:27:31.635Z,8.81
2023-03-16T12:30:25.903Z,8.81
2023-03-16T12:33:40.837Z,8.79
2023-03-16T12:36:19.099Z,8.72
2023-03-16T12:39:15.978Z,8.73
2023-03-16T12:41:54.602Z,8.72
2023-03-16T12:44:46.109Z,8.73
2023-03-16T12:47:50.934Z,8.79
2023-03-16T12:50:18.894Z,8.79
2023-03-16T12:52:54.631Z,8.85
2023-03-16T12:55:24.741Z,8.93
2023-03-16T12:57:51.632Z,8.89
2023-03-16T13:00:18.799Z,8.88
2023-03-16T13:02:53.671Z,8.89
2023-03-16T13:05:34.739Z,8.93
2023-03-16T13:08:13.716Z,8.93
2023-03-16T13:10:40.473Z,8.92
2023-03-16T13:13:15.157Z,8.86
2023-03-16T13:15:42.629Z,8.81
2023-03-16T13:18:09.145Z,8.83
2023-03-16T13:20:57.883Z,8.83
2023-03-16T13:23:30.191Z,8.79
2023-03-16T13:26:16.139Z,8.71
2023-03-16T13:28:45.376Z,8.60
2023-03-16T13:31:24.149Z,8.55
2023-03-16T13:33:53.504Z,8.61
2023-03-16T13:36:20.101Z,8.62
2023-03-16T13:39:15.577Z,8.57
2023-03-16T13:41:43.471Z,8.42
2023-03-16T13:44:14.918Z,8.37
2023-03-16T13:46:41.565Z,8.38
2023-03-16T13:49:11.989Z,8.29
2023-03-16T13:51:38.709Z,8.24
2023-03-16T13:54:09.061Z,8.21
2023-03-16T13:56:37.301Z,8.23
2023-03-16T13:59:04.105Z,8.27
2023-03-16T14:01:32.319Z,8.27
2023-03-16T14:04:05.597Z,8.23
2023-03-16T14:06:35.352Z,8.16
2023-03-16T14:09:06.283Z,8.12
2023-03-16T14:11:33.187Z,8.17
2023-03-16T14:14:00.538Z,8.16
2023-03-16T14:16:28.935Z,8.12
2023-03-16T14:19:06.689Z,8.20
2023-03-16T14:21:36.118Z,8.19
2023-03-16T14:24:04.933Z,8.12
2023-03-16T14:26:42.241Z,8.13
2023-03-16T14:29:35.748Z,8.12
2023-03-16T14:32:03.326Z,8.13
2023-03-16T14:34:35.265Z,8.17
2023-03-16T14:37:13.096Z,8.17
2023-03-16T14:39:42.468Z,8.03
2023-03-16T14:42:20.106Z,7.96
2023-03-16T14:44:46.708Z,7.87
2023-03-16T14:47:24.518Z,7.82
2023-03-16T14:49:51.356Z,7.75
2023-03-16T14:52:27.326Z,7.73
2023-03-16T14:54:55.308Z,7.68
2023-03-16T14:57:22.261Z,7.65
2023-03-16T14:59:48.921Z,7.66
2023-03-16T15:02:25.409Z,7.65
2023-03-16T15:04:52.107Z,7.62
2023-03-16T15:07:26.457Z,7.61
2023-03-16T15:09:53.939Z,7.58
2023-03-16T15:12:21.116Z,7.47
2023-03-16T15:15:06.644Z,7.41
2023-03-16T15:17:33.653Z,7.43
2023-03-16T15:20:00.381Z,7.50
2023-03-16T15:22:31.732Z,7.43
2023-03-16T15:24:58.934Z,7.44
2023-03-16T15:27:34.238Z,7.50
2023-03-16T15:30:00.988Z,7.51
2023-03-16T15:32:27.705Z,7.40
2023-03-16T15:34:54.449Z,7.32
2023-03-16T15:37:23.275Z,7.30
2023-03-16T15:39:49.726Z,7.17
2023-03-16T15:42:18.841Z,7.14
2023-03-16T15:44:47.437Z,7.08
2023-03-16T15:47:14.685Z,7.00
2023-03-16T15:49:47.811Z,6.93
2023-03-16T15:52:29.638Z,6.89
2023-03-16T15:54:57.552Z,6.87
2023-03-16T15:57:24.640Z,6.86
2023-03-16T15:59:52.478Z,6.85
2023-03-16T16:02:37.625Z,6.85
2023-03-16T16:05:04.459Z,6.86
2023-03-16T16:07:31.513Z,6.85
2023-03-16T16:09:58.222Z,6.79
2023-03-16T16:12:27.229Z,6.75
2023-03-16T16:14:56.289Z,6.66
2023-03-16T16:17:36.567Z,6.56
2023-03-16T16:20:22.940Z,6.53
2023-03-16T16:22:52.004Z,6.46
2023-03-16T16:25:19.590Z,6.45
2023-03-16T16:27:46.923Z,6.46
2023-03-16T16:30:27.815Z,6.39
2023-03-16T16:32:56.310Z,6.32
2023-03-16T16:35:27.056Z,6.28
2023-03-16T16:37:54.283Z,6.22
2023-03-16T16:40:23.348Z,6.24
2023-03-16T16:42:51.862Z,6.24
2023-03-16T16:45:20.290Z,6.21
2023-03-16T16:47:48.292Z,6.11
2023-03-16T16:50:23.262Z,5.99
2023-03-16T16:52:50.126Z,5.97
2023-03-16T16:55:16.936Z,5.93
2023-03-16T16:57:43.991Z,5.91
2023-03-16T17:00:23.182Z,5.86
2023-03-16T17:02:52.723Z,5.85
2023-03-16T17:05:24.301Z,5.76
2023-03-16T17:07:51.129Z,5.76
2023-03-16T17:10:28.198Z,5.77
2023-03-16T17:12:56.061Z,5.69
2023-03-16T17:15:25.937Z,5.69
2023-03-16T17:17:53.415Z,5.65
2023-03-16T17:20:21.033Z,5.62
2023-03-16T17:22:48.479Z,5.51
2023-03-16T17:25:16.601Z,5.46
2023-03-16T17:27:44.423Z,5.39
2023-03-16T17:30:32.280Z,5.30
2023-03-16T17:33:11.229Z,5.20
2023-03-16T17:35:38.019Z,5.18
2023-03-16T17:38:15.013Z,5.15
2023-03-16T17:40:41.796Z,5.10
2023-03-16T17:43:15.250Z,5.08
2023-03-16T17:45:42.292Z,5.10
2023-03-16T17:48:20.310Z,5.07
2023-03-16T17:50:47.339Z,5.04
2023-03-16T17:53:18.398Z,5.08
2023-03-16T17:55:46.318Z,5.04
2023-03-16T17:58:25.879Z,5.08
2023-03-16T18:00:54.096Z,5.05
2023-03-16T18:03:20.865Z,5.07
2023-03-16T18:05:47.828Z,5.05
2023-03-16T18:08:16.310Z,5.08
2023-03-16T18:10:43.898Z,5.07
2023-03-16T18:13:19.227Z,5.04
2023-03-16T18:15:47.144Z,4.95
2023-03-16T18:18:21.453Z,4.93
2023-03-16T18:20:52.241Z,4.83
2023-03-16T18:23:20.983Z,4.77
2023-03-16T18:25:48.732Z,4.74
2023-03-16T18:28:15.851Z,4.70
2023-03-16T18:30:44.637Z,4.66
2023-03-16T18:33:36.416Z,4.63
2023-03-16T18:36:13.439Z,4.60
2023-03-16T18:38:41.123Z,4.57
2023-03-16T18:41:24.893Z,4.60
2023-03-16T18:43:53.033Z,4.63
2023-03-16T18:46:32.503Z,4.57
2023-03-16T18:49:23.236Z,4.53
2023-03-16T18:51:51.383Z,4.42
2023-03-16T18:54:26.076Z,4.38
2023-03-16T18:56:53.879Z,4.31
2023-03-16T18:59:20.964Z,4.31
2023-03-16T19:01:48.061Z,4.29
2023-03-16T19:04:21.488Z,4.29
2023-03-16T19:06:48.574Z,4.28
2023-03-16T19:09:26.538Z,4.25
2023-03-16T19:11:53.311Z,4.21
2023-03-16T19:14:22.570Z,4.15
2023-03-16T19:16:49.265Z,4.17
2023-03-16T19:19:17.043Z,4.14
2023-03-16T19:21:43.747Z,4.15
2023-03-16T19:24:18.005Z,4.12
2023-03-16T19:26:44.670Z,4.11
2023-03-16T19:29:11.542Z,4.09
2023-03-16T19:31:38.249Z,4.08
2023-03-16T19:34:06.075Z,4.05
2023-03-16T19:36:33.937Z,4.07
2023-03-16T19:39:00.817Z,4.11
2023-03-16T19:41:29.181Z,4.08
2023-03-16T19:43:58.101Z,4.04
2023-03-16T19:46:27.198Z,3.98
2023-03-16T19:48:54.055Z,3.97
2023-03-16T19:51:21.975Z,3.97
2023-03-16T19:53:48.790Z,3.99
2023-03-16T19:56:16.773Z,3.95
2023-03-16T19:58:45.524Z,3.95
2023-03-16T20:01:19.194Z,3.94
2023-03-16T20:03:47.731Z,3.94
2023-03-16T20:06:19.225Z,3.97
2023-03-16T20:08:46.775Z,3.97
2023-03-16T20:11:22.203Z,4.01
2023-03-16T20:13:48.832Z,3.98
2023-03-16T20:16:18.815Z,3.98
2023-03-16T20:18:47.221Z,3.95
2023-03-16T20:21:15.329Z,3.97
2023-03-16T20:23:41.949Z,3.95
2023-03-16T20:26:15.970Z,4.01
2023-03-16T20:28:42.598Z,4.02
2023-03-16T20:31:17.422Z,4.08
2023-03-16T20:33:44.087Z,4.09
2023-03-16T20:36:11.856Z,4.14
2023-03-16T20:38:38.879Z,4.19
2023-03-16T20:41:28.173Z,4.19
2023-03-16T20:43:55.306Z,4.26
2023-03-16T20:46:26.473Z,4.31
2023-03-16T20:48:53.653Z,4.34
2023-03-16T20:51:20.330Z,4.26
2023-03-16T20:53:47.530Z,4.28
2023-03-16T20:56:21.709Z,4.28
2023-03-16T20:58:49.885Z,4.21
2023-03-16T21:01:18.474Z,4.17
2023-03-16T21:03:47.480Z,4.14
2023-03-16T21:06:17.950Z,4.07
2023-03-16T21:08:44.619Z,4.02
2023-03-16T21:11:19.373Z,4.07
2023-03-16T21:13:46.570Z,4.02
2023-03-16T21:16:13.831Z,3.97
2023-03-16T21:18:40.509Z,3.90
2023-03-16T21:21:09.259Z,3.84
2023-03-16T21:23:36.404Z,3.83
2023-03-16T21:26:03.953Z,3.84
2023-03-16T21:28:32.459Z,3.84
2023-03-16T21:30:59.228Z,3.84
2023-03-16T21:33:39.911Z,3.83
2023-03-16T21:36:11.965Z,3.77
2023-03-16T21:38:38.660Z,3.70
2023-03-16T21:41:05.478Z,3.74
2023-03-16T21:43:32.165Z,3.74
2023-03-16T21:45:59.597Z,3.57
2023-03-16T21:48:36.631Z,3.66
2023-03-16T21:51:03.259Z,3.70
2023-03-16T21:53:31.943Z,3.71
2023-03-16T21:55:58.845Z,3.73
2023-03-16T21:58:25.580Z,3.77
2023-03-16T22:00:52.718Z,3.80
2023-03-16T22:03:37.842Z,3.83
2023-03-16T22:06:11.016Z,3.84
2023-03-16T22:08:39.467Z,3.90
2023-03-16T22:11:10.345Z,3.93
2023-03-16T22:13:36.984Z,3.97
2023-03-16T22:16:06.051Z,3.87
2023-03-16T22:18:37.460Z,3.81
2023-03-16T22:21:23.588Z,3.78
2023-03-16T22:23:50.668Z,3.71
2023-03-16T22:26:19.566Z,3.64
2023-03-16T22:28:50.702Z,3.64
2023-03-16T22:31:19.506Z,3.66
2023-03-16T22:33:47.728Z,3.63
2023-03-16T22:36:19.213Z,3.64
2023-03-16T22:38:45.970Z,3.64
2023-03-16T22:41:14.324Z,3.57
2023-03-16T22:43:41.980Z,3.66
2023-03-16T22:46:17.657Z,3.62
2023-03-16T22:48:44.277Z,3.50
2023-03-16T22:51:10.959Z,3.46
2023-03-16T22:53:42.443Z,3.42
2023-03-16T22:56:11.920Z,3.39
2023-03-16T22:59:06.089Z,3.40
2023-03-16T23:01:43.849Z,3.33
2023-03-16T23:04:20.020Z,3.18
2023-03-16T23:06:52.717Z,3.25
2023-03-16T23:09:20.428Z,3.21
2023-03-16T23:11:47.561Z,3.12
2023-03-16T23:14:24.313Z,3.16
2023-03-16T23:16:52.631Z,3.26
2023-03-16T23:19:30.137Z,3.32
2023-03-16T23:21:59.715Z,3.40
2023-03-16T23:24:26.483Z,3.26
2023-03-16T23:26:53.405Z,3.29
2023-03-16T23:29:20.911Z,3.39
2023-03-16T23:31:47.626Z,3.40
2023-03-16T23:34:16.760Z,3.43
2023-03-16T23:36:43.532Z,3.52
2023-03-16T23:39:10.664Z,3.53
2023-03-16T23:41:42.206Z,3.53
2023-03-16T23:44:08.904Z,3.55
2023-03-16T23:46:35.583Z,3.55
2023-03-16T23:49:03.702Z,3.46
2023-03-16T23:51:37.285Z,3.49
2023-03-16T23:54:25.433Z,3.50
2023-03-16T23:56:52.144Z,3.46
2023-03-16T23:59:19.560Z,3.44
